Elbow, Canada
Current Conditions -  °F | °C
As of 2:00 PM on Monday 26 Jan 2015 (Local Time) from CYXE Reporting Station
Broken Clouds Broken Clouds  
Wind Chill:   Ceiling: 25000
Heat Index:   Visibility: 15mi
Dew Point: -1°   Wind: 10mph
Humidity: 70%   Direction: 240°WSW
Pressure: 29.86"   Gusts: NA
Location:  51.12°N, 106.6°W
Report Text: CYXE 262000Z 24009KT 15SM SCT100 BKN250 04/M01 A2986 RMK AC3CI2 SLP137
Loading
Personal Weather Stations






























Interactive Weather Map New forecast layout! Learn more

10-Day Weather Forecast

Advertisements
Track Severe Weather on mobile